• Join FlightAware (Why Join?)
  • Login
  • US Flag 
07:06AM EDT


 

Airport Tracker/Info


-or-


 

Live Flight TrackerFlight Track Log ✈ N75ZM ✈ 20-Oct-2013 ✈ KGSP - KCRG

Flight Track Log - Related Links

Times and Time Zones

All times are in EDT time to prevent confusion due to time zone crossing. See the N75ZM flight status page for this flight to view local times or setup timezone preferences in your user account.

Time Position Orientation Groundspeed Altitude Reporting Facility
EDT Latitude Longitude Course Direction KTS MPH feet Rate Location/Type
11:52AM 34.6276 -82.1754 172° South  Level Estimated
11:53AM 34.5831 -82.1667 171° South  Level FlightAware Approximate
11:54AM 34.5386 -82.1580 171° South  Level FlightAware Approximate
11:55AM 34.4941 -82.1494 171° South  Level FlightAware Approximate
11:56AM 34.4496 -82.1407 171° South  Level FlightAware Approximate
11:57AM 34.4051 -82.1321 171° South  Level FlightAware Approximate
11:58AM 34.3605 -82.1234 171° South  Level FlightAware Approximate
11:59AM 34.3159 -82.1163 172° South  Level Estimated
12:00PM 34.2713 -82.1085 172° South  Level FlightAware Approximate
12:01PM 34.2267 -82.1006 172° South  Level FlightAware Approximate
12:02PM 34.1821 -82.0927 172° South  Level FlightAware Approximate
12:03PM 34.1375 -82.0848 172° South  Level FlightAware Approximate
12:04PM 34.0929 -82.0769 172° South  Level FlightAware Approximate
12:05PM 34.0483 -82.0691 172° South  Level FlightAware Approximate
12:06PM 34.0037 -82.0612 172° South  Level FlightAware Approximate
12:07PM 33.9591 -82.0534 172° South  Level FlightAware Approximate
12:08PM 33.9145 -82.0455 172° South  Level FlightAware Approximate
12:09PM 33.8699 -82.0377 172° South  Level FlightAware Approximate
12:10PM 33.8253 -82.0299 172° South  Level FlightAware Approximate
12:11PM 33.7807 -82.0221 172° South  Level FlightAware Approximate
12:12PM 33.7361 -82.0143 172° South  Level FlightAware Approximate
12:13PM 33.6914 -82.0065 172° South  Level FlightAware Approximate
12:14PM 33.6467 -81.9997 174° South  Level Estimated
12:15PM 33.6020 -81.9930 173° South  Level FlightAware Approximate
12:16PM 33.5573 -81.9862 173° South  Level FlightAware Approximate
12:17PM 33.5126 -81.9795 173° South  Level FlightAware Approximate
12:18PM 33.4678 -81.9728 173° South  Level FlightAware Approximate
12:19PM 33.4231 -81.9661 173° South  Level FlightAware Approximate
12:20PM 33.3784 -81.9594 173° South  Level FlightAware Approximate
12:21PM 33.3336 -81.9527 173° South  Level FlightAware Approximate
12:22PM 33.2889 -81.9461 173° South  Level FlightAware Approximate
12:23PM 33.2442 -81.9394 173° South  Level FlightAware Approximate
12:24PM 33.1995 -81.9327 173° South  Level FlightAware Approximate
12:25PM 33.1547 -81.9260 172° South  Level Estimated
12:26PM 33.1100 -81.9191 173° South  Level FlightAware Approximate
12:27PM 33.0653 -81.9123 173° South  Level FlightAware Approximate
12:28PM 33.0206 -81.9056 172° South  Level Estimated
12:29PM 32.9759 -81.8984 172° South  Level FlightAware Approximate
12:29PM 33.1144 -81.9233 172° South 162 186 9,100  Level Atlanta Center
12:30PM 32.9313 -81.8913 172° South  Level FlightAware Approximate
12:30PM 33.0664 -81.9194 176° South 162 186 9,100  Level Atlanta Center
12:31PM 32.8866 -81.8841 172° South  Level FlightAware Approximate
12:31PM 33.0244 -81.9131 173° South 167 192 9,100  Level Atlanta Center
12:32PM 32.8419 -81.8770 172° South  Level FlightAware Approximate
12:33PM 32.7972 -81.8699 172° South  Level FlightAware Approximate
12:33PM 32.9497 -81.9025 173° South 161 185 9,100  Level Jacksonville Center
12:34PM 32.7525 -81.8628 172° South  Level FlightAware Approximate
12:34PM 32.9058 -81.8906 167° South 161 185 9,100  Level Jacksonville Center
12:35PM 32.8597 -81.8861 175° South 161 185 9,100 60 Level Jacksonville Center
12:36PM 32.8158 -81.8792 172° South 161 185 9,300 300 Climbing Jacksonville Center
12:37PM 32.7742 -81.8722 172° South 161 185 9,700 420 Climbing Jacksonville Center
12:38PM 32.7344 -81.8628 169° South 161 185 10,200 480 Climbing Jacksonville Center
12:39PM 32.6947 -81.8608 178° South 156 180 10,700 420 Climbing Jacksonville Center
12:40PM 32.6550 -81.8564 175° South 145 167 11,100 180 Climbing Jacksonville Center
12:41PM 32.6111 -81.8494 172° South 145 167 11,100  Level Jacksonville Center
12:42PM 32.5736 -81.8447 174° South 145 167 11,100  Level Jacksonville Center
12:43PM 32.5253 -81.8381 173° South 151 174 11,100  Level Jacksonville Center
12:44PM 32.4836 -81.8311 172° South 151 174 11,100  Level Jacksonville Center
12:45PM 32.4458 -81.8242 171° South 158 182 11,100  Level Jacksonville Center
12:46PM 32.4000 -81.8172 173° South 158 182 11,100  Level Jacksonville Center
12:47PM 32.3561 -81.8131 175° South 158 182 11,100  Level Jacksonville Center
12:48PM 32.3164 -81.8061 172° South 158 182 11,100  Level Jacksonville Center
12:49PM 32.2725 -81.7992 172° South 158 182 11,100  Level Jacksonville Center
12:50PM 32.2328 -81.7922 172° South 158 182 11,100  Level Jacksonville Center
12:51PM 32.1867 -81.7856 173° South 157 181 11,100  Level Jacksonville Center
12:52PM 32.1450 -81.7786 172° South 157 181 11,100  Level Jacksonville Center
12:53PM 32.1072 -81.7742 174° South 157 181 11,100  Level Jacksonville Center
12:54PM 32.0614 -81.7675 173° South 157 181 11,100  Level Jacksonville Center
12:55PM 32.0217 -81.7606 172° South 157 181 11,100  Level Jacksonville Center
12:56PM 31.9756 -81.7561 175° South 157 181 11,100  Level Jacksonville Center
12:57PM 31.9381 -81.7492 171° South 157 181 11,100  Level Jacksonville Center
12:58PM 31.8961 -81.7450 175° South 157 181 11,200  Climbing Jacksonville Center
12:59PM 31.8503 -81.7358 170° South 157 181 11,100 -60 Descending Jacksonville Center
01:00PM 31.8125 -81.7289 171° South 157 181 11,100  Level Jacksonville Center
01:01PM 31.7644 -81.7244 176° South 157 181 11,100 -60 Level Jacksonville Center
01:02PM 31.7225 -81.7153 169° South 157 181 11,000  Descending Jacksonville Center
01:03PM 31.6850 -81.7108 174° South 157 181 11,100  Climbing Jacksonville Center
01:04PM 31.6369 -81.7042 173° South 157 181 11,100  Level Jacksonville Center
01:05PM 31.5950 -81.6975 172° South 157 181 11,100  Level Jacksonville Center
01:06PM 31.5575 -81.6906 171° South 157 181 11,100  Level Jacksonville Center
01:07PM 31.5094 -81.6839 173° South 157 181 11,100  Level Jacksonville Center
01:08PM 31.4697 -81.6794 175° South 157 181 11,100 -180 Level Jacksonville Center
01:09PM 31.4217 -81.6728 173° South 162 186 10,800 -360 Descending Jacksonville Center
01:10PM 31.3756 -81.6636 170° South 167 192 10,400 -360 Descending Jacksonville Center
01:11PM 31.3297 -81.6619 178° South 167 192 10,100 -420 Descending Jacksonville Center
01:12PM 31.2794 -81.6528 171° South 174 200 9,600 -540 Descending Jacksonville Center
01:12PM 31.2772 -81.6553 224° Southwest 170 196 9,600 -480 Level Jacksonville Center
01:13PM 31.2481 -81.6458 165° South 171 197 9,300 -420 Descending Jacksonville Center
01:13PM 31.2333 -81.6461 181° South 174 200 9,200 -420 Descending Jacksonville Center
01:14PM 31.2019 -81.6417 173° South 170 196 8,900 -420 Descending Jacksonville Center
01:14PM 31.1853 -81.6394 173° South 174 200 8,800 -420 Descending Jacksonville Center
01:15PM 31.1539 -81.6325 169° South 171 197 8,500 -420 Descending Jacksonville Center
01:15PM 31.1433 -81.6303 170° South 179 206 8,400 -420 Descending Jacksonville Center
01:16PM 31.1058 -81.6283 177° South 174 200 8,100 -300 Descending Jacksonville Center
01:16PM 31.0953 -81.6236 159° South 180 207 8,100  Level Jacksonville Center
01:17PM 31.0556 -81.6194 175° South 169 194 8,100 60 Level Jacksonville Center
01:17PM 31.0472 -81.6194 180° South 180 207 8,200 60 Climbing Jacksonville Center
01:18PM 31.0097 -81.6128 171° South 161 185 8,200  Level Jacksonville Center
01:18PM 31.0014 -81.6128 180° South 180 207 8,200 -120 Level Jacksonville Center
01:19PM 30.9678 -81.6061 170° South 161 185 8,100  Descending Jacksonville Center
01:19PM 30.9575 -81.6061 180° South 180 207 8,200 60 Climbing Jacksonville Center
01:20PM 30.9239 -81.6017 174° South 159 183 8,200  Level Jacksonville Center
01:20PM 30.9156 -81.6019 182° South 175 201 8,200 -120 Level Jacksonville Center
01:21PM 30.8694 -81.5928 170° South 170 196 8,100  Descending Jacksonville Center
01:22PM 30.8319 -81.5861 171° South 159 183 8,200  Climbing Jacksonville Center
01:23PM 30.7858 -81.5819 176° South 159 183 8,200 -120 Level Jacksonville Center
01:24PM 30.7419 -81.5753 173° South 159 183 8,000 -540 Descending Jacksonville Center
01:25PM 30.6961 -81.5686 173° South 168 193 7,200 -840 Descending Jacksonville Center
01:26PM 30.6458 -81.5622 174° South 171 197 6,300 -840 Descending Jacksonville Center
01:27PM 30.5978 -81.5603 178° South 173 199 5,600 -780 Descending Jacksonville Center
01:28PM 30.5478 -81.5636 183° South 173 199 4,800 -780 Descending Jacksonville Center
01:29PM 30.4997 -81.5642 181° South 173 199 4,100 -780 Descending Jacksonville Center
01:30PM 30.4539 -81.5647 181° South 167 192 3,300 -780 Descending Jacksonville Center
01:31PM 30.4078 -81.5678 183° South 164 189 2,600 -840 Descending Jacksonville Center
01:32PM 30.3619 -81.5683 181° South 147 169 1,700 -660 Descending Jacksonville Center
01:33PM 30.3283 -81.5544 160° South 118 136 1,300 -540 Descending Jacksonville Center
01:34PM 30.3178 -81.5331 120° Southeast 90 104 700 -480 Descending Jacksonville Center
01:35PM 30.3261 -81.5233 45° Northeast 77 89 400 -300 Descending Jacksonville Center